sensor_id;sensor_type;location;lat;lon;timestamp;temperature;humidity
52643;DHT22;38531;53.296;6.614;2023-10-09T00:01:43;13.70;99.90
52643;DHT22;38531;53.296;6.614;2023-10-09T00:04:10;13.70;99.90
52643;DHT22;38531;53.296;6.614;2023-10-09T00:06:37;13.80;99.90
52643;DHT22;38531;53.296;6.614;2023-10-09T00:09:06;13.70;99.90
52643;DHT22;38531;53.296;6.614;2023-10-09T00:11:51;13.70;99.90
52643;DHT22;38531;53.296;6.614;2023-10-09T00:14:30;13.80;99.90
52643;DHT22;38531;53.296;6.614;2023-10-09T00:16:57;13.80;99.90
52643;DHT22;38531;53.296;6.614;2023-10-09T00:19:38;13.70;99.90
52643;DHT22;38531;53.296;6.614;2023-10-09T00:22:04;13.70;99.90
52643;DHT22;38531;53.296;6.614;2023-10-09T00:24:33;13.70;99.90
52643;DHT22;38531;53.296;6.614;2023-10-09T00:26:59;13.70;99.90
52643;DHT22;38531;53.296;6.614;2023-10-09T00:29:37;13.70;99.90
52643;DHT22;38531;53.296;6.614;2023-10-09T00:32:09;13.80;99.90
52643;DHT22;38531;53.296;6.614;2023-10-09T00:34:53;13.70;99.90
52643;DHT22;38531;53.296;6.614;2023-10-09T00:37:18;13.70;99.90
52643;DHT22;38531;53.296;6.614;2023-10-09T00:39:52;13.80;99.90
52643;DHT22;38531;53.296;6.614;2023-10-09T00:42:24;13.80;99.90
52643;DHT22;38531;53.296;6.614;2023-10-09T00:45:01;13.90;99.90
52643;DHT22;38531;53.296;6.614;2023-10-09T00:47:31;13.70;99.90
52643;DHT22;38531;53.296;6.614;2023-10-09T00:50:02;13.80;99.90
52643;DHT22;38531;53.296;6.614;2023-10-09T00:52:57;13.80;99.90
52643;DHT22;38531;53.296;6.614;2023-10-09T00:55:31;13.80;99.90
52643;DHT22;38531;53.296;6.614;2023-10-09T00:58:11;13.80;99.90
52643;DHT22;38531;53.296;6.614;2023-10-09T01:00:43;13.80;99.90
52643;DHT22;38531;53.296;6.614;2023-10-09T01:03:10;13.80;99.90
52643;DHT22;38531;53.296;6.614;2023-10-09T01:05:53;13.80;99.90
52643;DHT22;38531;53.296;6.614;2023-10-09T01:08:40;13.80;99.90
52643;DHT22;38531;53.296;6.614;2023-10-09T01:11:16;13.80;99.90
52643;DHT22;38531;53.296;6.614;2023-10-09T01:13:49;13.80;99.90
52643;DHT22;38531;53.296;6.614;2023-10-09T01:16:19;13.80;99.90
52643;DHT22;38531;53.296;6.614;2023-10-09T01:18:56;14.00;99.90
52643;DHT22;38531;53.296;6.614;2023-10-09T01:21:23;13.80;99.90
52643;DHT22;38531;53.296;6.614;2023-10-09T01:23:51;13.90;99.90
52643;DHT22;38531;53.296;6.614;2023-10-09T01:26:36;14.20;99.90
52643;DHT22;38531;53.296;6.614;2023-10-09T01:29:16;13.90;99.90
52643;DHT22;38531;53.296;6.614;2023-10-09T01:31:53;13.80;99.90
52643;DHT22;38531;53.296;6.614;2023-10-09T01:37:07;14.00;99.90
52643;DHT22;38531;53.296;6.614;2023-10-09T01:39:49;13.90;99.90
52643;DHT22;38531;53.296;6.614;2023-10-09T01:42:16;13.90;99.90
52643;DHT22;38531;53.296;6.614;2023-10-09T01:45:01;13.90;99.90
52643;DHT22;38531;53.296;6.614;2023-10-09T01:47:43;13.90;99.90
52643;DHT22;38531;53.296;6.614;2023-10-09T01:50:18;13.90;99.90
52643;DHT22;38531;53.296;6.614;2023-10-09T01:52:45;13.90;99.90
52643;DHT22;38531;53.296;6.614;2023-10-09T01:55:11;13.90;99.90
52643;DHT22;38531;53.296;6.614;2023-10-09T01:58:03;13.80;99.90
52643;DHT22;38531;53.296;6.614;2023-10-09T02:00:50;13.80;99.90
52643;DHT22;38531;53.296;6.614;2023-10-09T02:03:28;13.80;99.90
52643;DHT22;38531;53.296;6.614;2023-10-09T02:05:55;13.80;99.90
52643;DHT22;38531;53.296;6.614;2023-10-09T02:08:28;13.80;99.90
52643;DHT22;38531;53.296;6.614;2023-10-09T02:10:55;13.80;99.90
52643;DHT22;38531;53.296;6.614;2023-10-09T02:13:22;13.90;99.90
52643;DHT22;38531;53.296;6.614;2023-10-09T02:16:00;13.80;99.90
52643;DHT22;38531;53.296;6.614;2023-10-09T02:18:38;13.80;99.90
52643;DHT22;38531;53.296;6.614;2023-10-09T02:21:19;13.70;99.90
52643;DHT22;38531;53.296;6.614;2023-10-09T02:24:00;13.80;99.90
52643;DHT22;38531;53.296;6.614;2023-10-09T02:26:30;14.00;99.90
52643;DHT22;38531;53.296;6.614;2023-10-09T02:29:04;13.80;99.90
52643;DHT22;38531;53.296;6.614;2023-10-09T02:31:41;13.80;99.90
52643;DHT22;38531;53.296;6.614;2023-10-09T02:34:10;13.80;99.90
52643;DHT22;38531;53.296;6.614;2023-10-09T02:36:39;13.80;99.90
52643;DHT22;38531;53.296;6.614;2023-10-09T02:39:11;14.10;99.90
52643;DHT22;38531;53.296;6.614;2023-10-09T02:41:55;13.80;99.90
52643;DHT22;38531;53.296;6.614;2023-10-09T02:44:27;13.80;99.90
52643;DHT22;38531;53.296;6.614;2023-10-09T02:47:00;14.00;99.90
52643;DHT22;38531;53.296;6.614;2023-10-09T02:49:30;13.80;99.90
52643;DHT22;38531;53.296;6.614;2023-10-09T02:51:56;14.10;99.90
52643;DHT22;38531;53.296;6.614;2023-10-09T02:54:22;13.80;99.90
52643;DHT22;38531;53.296;6.614;2023-10-09T02:56:49;13.80;99.90
52643;DHT22;38531;53.296;6.614;2023-10-09T02:59:34;13.80;99.90
52643;DHT22;38531;53.296;6.614;2023-10-09T03:02:00;13.90;99.90
52643;DHT22;38531;53.296;6.614;2023-10-09T03:04:26;13.80;99.90
52643;DHT22;38531;53.296;6.614;2023-10-09T03:07:00;13.80;99.90
52643;DHT22;38531;53.296;6.614;2023-10-09T03:09:26;13.90;99.90
52643;DHT22;38531;53.296;6.614;2023-10-09T03:12:01;13.90;99.90
52643;DHT22;38531;53.296;6.614;2023-10-09T03:14:34;13.90;99.90
52643;DHT22;38531;53.296;6.614;2023-10-09T03:17:01;13.90;99.90
52643;DHT22;38531;53.296;6.614;2023-10-09T03:19:33;13.90;99.90
52643;DHT22;38531;53.296;6.614;2023-10-09T03:22:05;14.00;99.90
52643;DHT22;38531;53.296;6.614;2023-10-09T03:24:36;14.00;99.90
52643;DHT22;38531;53.296;6.614;2023-10-09T03:27:03;14.00;99.90
52643;DHT22;38531;53.296;6.614;2023-10-09T03:29:28;14.00;99.90
52643;DHT22;38531;53.296;6.614;2023-10-09T03:31:54;14.00;99.90
52643;DHT22;38531;53.296;6.614;2023-10-09T03:34:22;14.10;99.90
52643;DHT22;38531;53.296;6.614;2023-10-09T03:36:49;14.10;99.90
52643;DHT22;38531;53.296;6.614;2023-10-09T03:39:25;14.10;99.90
52643;DHT22;38531;53.296;6.614;2023-10-09T03:42:00;14.10;99.90
52643;DHT22;38531;53.296;6.614;2023-10-09T03:44:30;14.30;99.90
52643;DHT22;38531;53.296;6.614;2023-10-09T03:46:56;14.20;99.90
52643;DHT22;38531;53.296;6.614;2023-10-09T03:49:22;14.20;99.90
52643;DHT22;38531;53.296;6.614;2023-10-09T03:51:52;14.20;99.90
52643;DHT22;38531;53.296;6.614;2023-10-09T03:54:18;14.20;99.90
52643;DHT22;38531;53.296;6.614;2023-10-09T03:56:50;14.20;99.90
52643;DHT22;38531;53.296;6.614;2023-10-09T03:59:18;14.20;99.90
52643;DHT22;38531;53.296;6.614;2023-10-09T04:01:46;14.20;99.90
52643;DHT22;38531;53.296;6.614;2023-10-09T04:04:13;14.30;99.90
52643;DHT22;38531;53.296;6.614;2023-10-09T04:06:40;14.30;99.90
52643;DHT22;38531;53.296;6.614;2023-10-09T04:09:10;14.30;99.90
52643;DHT22;38531;53.296;6.614;2023-10-09T04:11:52;14.30;99.90
52643;DHT22;38531;53.296;6.614;2023-10-09T04:14:40;14.30;99.90
52643;DHT22;38531;53.296;6.614;2023-10-09T04:17:14;14.50;99.90
52643;DHT22;38531;53.296;6.614;2023-10-09T04:19:58;14.40;99.90
52643;DHT22;38531;53.296;6.614;2023-10-09T04:22:42;14.60;99.90
52643;DHT22;38531;53.296;6.614;2023-10-09T04:25:19;14.50;99.90
52643;DHT22;38531;53.296;6.614;2023-10-09T04:27:59;14.50;99.90
52643;DHT22;38531;53.296;6.614;2023-10-09T04:30:41;14.60;99.90
52643;DHT22;38531;53.296;6.614;2023-10-09T04:33:09;14.60;99.90
52643;DHT22;38531;53.296;6.614;2023-10-09T04:36:03;14.70;99.90
52643;DHT22;38531;53.296;6.614;2023-10-09T04:38:44;14.70;99.90
52643;DHT22;38531;53.296;6.614;2023-10-09T04:41:29;15.00;99.90
52643;DHT22;38531;53.296;6.614;2023-10-09T04:43:58;14.70;99.90
52643;DHT22;38531;53.296;6.614;2023-10-09T04:46:47;14.70;99.90
52643;DHT22;38531;53.296;6.614;2023-10-09T04:49:36;14.80;99.90
52643;DHT22;38531;53.296;6.614;2023-10-09T04:52:31;14.80;99.90
52643;DHT22;38531;53.296;6.614;2023-10-09T04:54:58;14.80;99.90
52643;DHT22;38531;53.296;6.614;2023-10-09T04:57:39;14.90;99.90
52643;DHT22;38531;53.296;6.614;2023-10-09T05:00:17;14.90;99.90
52643;DHT22;38531;53.296;6.614;2023-10-09T05:02:57;14.90;99.90
52643;DHT22;38531;53.296;6.614;2023-10-09T05:05:25;14.90;99.90
52643;DHT22;38531;53.296;6.614;2023-10-09T05:08:11;14.90;99.90
52643;DHT22;38531;53.296;6.614;2023-10-09T05:10:56;15.00;99.90
52643;DHT22;38531;53.296;6.614;2023-10-09T05:13:32;15.00;99.90
52643;DHT22;38531;53.296;6.614;2023-10-09T05:16:24;15.00;99.90
52643;DHT22;38531;53.296;6.614;2023-10-09T05:18:58;15.20;99.90
52643;DHT22;38531;53.296;6.614;2023-10-09T05:21:53;15.00;99.90
52643;DHT22;38531;53.296;6.614;2023-10-09T05:24:24;15.00;99.90
52643;DHT22;38531;53.296;6.614;2023-10-09T05:26:52;15.10;99.90
52643;DHT22;38531;53.296;6.614;2023-10-09T05:29:21;15.10;99.90
52643;DHT22;38531;53.296;6.614;2023-10-09T05:32:00;15.10;99.90
52643;DHT22;38531;53.296;6.614;2023-10-09T05:34:26;15.10;99.90
52643;DHT22;38531;53.296;6.614;2023-10-09T05:37:06;15.30;99.90
52643;DHT22;38531;53.296;6.614;2023-10-09T05:39:54;15.10;99.90
52643;DHT22;38531;53.296;6.614;2023-10-09T05:42:26;15.20;99.90
52643;DHT22;38531;53.296;6.614;2023-10-09T05:45:14;15.40;99.90
52643;DHT22;38531;53.296;6.614;2023-10-09T05:50:30;15.20;99.90
52643;DHT22;38531;53.296;6.614;2023-10-09T05:53:25;15.20;99.90
52643;DHT22;38531;53.296;6.614;2023-10-09T05:56:19;15.20;99.90
52643;DHT22;38531;53.296;6.614;2023-10-09T05:58:57;15.20;99.90
52643;DHT22;38531;53.296;6.614;2023-10-09T06:01:32;15.30;99.90
52643;DHT22;38531;53.296;6.614;2023-10-09T06:04:26;15.30;99.90
52643;DHT22;38531;53.296;6.614;2023-10-09T06:07:31;15.30;99.90
52643;DHT22;38531;53.296;6.614;2023-10-09T06:10:15;15.30;99.90
52643;DHT22;38531;53.296;6.614;2023-10-09T06:13:03;15.30;99.90
52643;DHT22;38531;53.296;6.614;2023-10-09T06:15:34;15.40;99.90
52643;DHT22;38531;53.296;6.614;2023-10-09T06:18:15;15.40;99.90
52643;DHT22;38531;53.296;6.614;2023-10-09T06:20:58;15.40;99.90
52643;DHT22;38531;53.296;6.614;2023-10-09T06:23:30;15.40;99.90
52643;DHT22;38531;53.296;6.614;2023-10-09T06:26:29;15.40;99.90
52643;DHT22;38531;53.296;6.614;2023-10-09T06:28:58;15.40;99.90
52643;DHT22;38531;53.296;6.614;2023-10-09T06:31:56;15.40;99.90
52643;DHT22;38531;53.296;6.614;2023-10-09T06:34:46;15.50;99.90
52643;DHT22;38531;53.296;6.614;2023-10-09T06:37:18;15.50;99.90
52643;DHT22;38531;53.296;6.614;2023-10-09T06:39:53;15.50;99.90
52643;DHT22;38531;53.296;6.614;2023-10-09T06:42:27;15.50;99.90
52643;DHT22;38531;53.296;6.614;2023-10-09T06:45:19;15.50;99.90
52643;DHT22;38531;53.296;6.614;2023-10-09T06:47:47;15.50;99.90
52643;DHT22;38531;53.296;6.614;2023-10-09T06:50:35;15.50;99.90
52643;DHT22;38531;53.296;6.614;2023-10-09T06:53:19;15.50;99.90
52643;DHT22;38531;53.296;6.614;2023-10-09T06:55:46;15.60;99.90
52643;DHT22;38531;53.296;6.614;2023-10-09T06:58:23;15.60;99.90
52643;DHT22;38531;53.296;6.614;2023-10-09T07:00:54;15.60;99.90
52643;DHT22;38531;53.296;6.614;2023-10-09T07:03:38;15.60;99.90
52643;DHT22;38531;53.296;6.614;2023-10-09T07:06:18;15.60;99.90
52643;DHT22;38531;53.296;6.614;2023-10-09T07:08:51;15.60;99.90
52643;DHT22;38531;53.296;6.614;2023-10-09T07:11:36;15.70;99.90
52643;DHT22;38531;53.296;6.614;2023-10-09T07:14:05;15.70;99.90
52643;DHT22;38531;53.296;6.614;2023-10-09T07:16:32;15.70;99.90
52643;DHT22;38531;53.296;6.614;2023-10-09T07:19:06;15.70;99.90
52643;DHT22;38531;53.296;6.614;2023-10-09T07:21:36;15.70;99.90
52643;DHT22;38531;53.296;6.614;2023-10-09T07:24:05;15.80;99.90
52643;DHT22;38531;53.296;6.614;2023-10-09T07:26:40;15.80;99.90
52643;DHT22;38531;53.296;6.614;2023-10-09T07:29:13;15.80;99.90
52643;DHT22;38531;53.296;6.614;2023-10-09T07:31:44;15.80;99.90
52643;DHT22;38531;53.296;6.614;2023-10-09T07:34:13;15.80;99.90
52643;DHT22;38531;53.296;6.614;2023-10-09T07:36:56;15.80;99.90
52643;DHT22;38531;53.296;6.614;2023-10-09T07:39:22;15.80;99.90
52643;DHT22;38531;53.296;6.614;2023-10-09T07:41:48;15.80;99.90
52643;DHT22;38531;53.296;6.614;2023-10-09T07:44:41;15.80;99.90
52643;DHT22;38531;53.296;6.614;2023-10-09T07:47:11;16.00;99.90
52643;DHT22;38531;53.296;6.614;2023-10-09T07:49:44;15.90;99.90
52643;DHT22;38531;53.296;6.614;2023-10-09T07:52:15;15.90;99.90
52643;DHT22;38531;53.296;6.614;2023-10-09T07:54:41;15.90;99.90
52643;DHT22;38531;53.296;6.614;2023-10-09T07:57:21;15.90;99.90
52643;DHT22;38531;53.296;6.614;2023-10-09T07:59:54;15.90;99.90
52643;DHT22;38531;53.296;6.614;2023-10-09T08:02:25;15.90;99.90
52643;DHT22;38531;53.296;6.614;2023-10-09T08:05:00;15.90;99.90
52643;DHT22;38531;53.296;6.614;2023-10-09T08:07:30;16.00;99.90
52643;DHT22;38531;53.296;6.614;2023-10-09T08:10:07;15.90;99.90
52643;DHT22;38531;53.296;6.614;2023-10-09T08:12:39;16.00;99.90
52643;DHT22;38531;53.296;6.614;2023-10-09T08:15:07;16.00;99.90
52643;DHT22;38531;53.296;6.614;2023-10-09T08:17:58;16.00;99.90
52643;DHT22;38531;53.296;6.614;2023-10-09T08:20:29;16.00;99.90
52643;DHT22;38531;53.296;6.614;2023-10-09T08:23:15;16.00;99.90
52643;DHT22;38531;53.296;6.614;2023-10-09T08:26:05;16.00;99.90
52643;DHT22;38531;53.296;6.614;2023-10-09T08:28:40;16.00;99.90
52643;DHT22;38531;53.296;6.614;2023-10-09T08:31:16;16.10;99.90
52643;DHT22;38531;53.296;6.614;2023-10-09T08:34:02;16.20;99.90
52643;DHT22;38531;53.296;6.614;2023-10-09T08:36:29;16.20;99.90
52643;DHT22;38531;53.296;6.614;2023-10-09T08:39:02;16.20;99.90
52643;DHT22;38531;53.296;6.614;2023-10-09T08:41:42;16.30;99.90
52643;DHT22;38531;53.296;6.614;2023-10-09T08:44:12;16.30;99.90
52643;DHT22;38531;53.296;6.614;2023-10-09T08:46:41;16.30;99.90
52643;DHT22;38531;53.296;6.614;2023-10-09T08:49:08;16.30;99.90
52643;DHT22;38531;53.296;6.614;2023-10-09T08:51:36;16.30;99.90
52643;DHT22;38531;53.296;6.614;2023-10-09T08:54:03;16.30;99.90
52643;DHT22;38531;53.296;6.614;2023-10-09T08:56:30;16.30;99.90
52643;DHT22;38531;53.296;6.614;2023-10-09T08:58:57;16.30;99.90
52643;DHT22;38531;53.296;6.614;2023-10-09T09:01:23;16.30;99.90
52643;DHT22;38531;53.296;6.614;2023-10-09T09:03:51;16.30;99.90
52643;DHT22;38531;53.296;6.614;2023-10-09T09:06:20;16.40;99.90
52643;DHT22;38531;53.296;6.614;2023-10-09T09:08:47;16.40;99.90
52643;DHT22;38531;53.296;6.614;2023-10-09T09:11:17;16.40;99.90
52643;DHT22;38531;53.296;6.614;2023-10-09T09:16:34;16.50;99.90
52643;DHT22;38531;53.296;6.614;2023-10-09T09:19:05;16.50;99.90
52643;DHT22;38531;53.296;6.614;2023-10-09T09:21:42;16.60;99.90
52643;DHT22;38531;53.296;6.614;2023-10-09T09:24:10;16.60;99.90
52643;DHT22;38531;53.296;6.614;2023-10-09T09:26:49;16.60;99.90
52643;DHT22;38531;53.296;6.614;2023-10-09T09:29:45;16.70;99.90
52643;DHT22;38531;53.296;6.614;2023-10-09T09:32:33;16.70;99.90
52643;DHT22;38531;53.296;6.614;2023-10-09T09:35:02;16.80;99.90
52643;DHT22;38531;53.296;6.614;2023-10-09T09:37:31;16.80;99.90
52643;DHT22;38531;53.296;6.614;2023-10-09T09:40:12;16.90;99.90
52643;DHT22;38531;53.296;6.614;2023-10-09T09:42:49;17.00;99.90
52643;DHT22;38531;53.296;6.614;2023-10-09T09:45:16;17.00;99.90
52643;DHT22;38531;53.296;6.614;2023-10-09T09:47:45;17.00;99.90
52643;DHT22;38531;53.296;6.614;2023-10-09T09:50:17;17.00;99.90
52643;DHT22;38531;53.296;6.614;2023-10-09T09:52:54;17.00;99.90
52643;DHT22;38531;53.296;6.614;2023-10-09T09:55:24;17.00;99.90
52643;DHT22;38531;53.296;6.614;2023-10-09T09:57:56;17.00;99.90
52643;DHT22;38531;53.296;6.614;2023-10-09T10:00:25;17.00;99.90
52643;DHT22;38531;53.296;6.614;2023-10-09T10:03:26;17.00;99.90
52643;DHT22;38531;53.296;6.614;2023-10-09T10:05:56;17.00;99.90
52643;DHT22;38531;53.296;6.614;2023-10-09T10:08:23;17.00;99.90
52643;DHT22;38531;53.296;6.614;2023-10-09T10:10:58;17.00;99.90
52643;DHT22;38531;53.296;6.614;2023-10-09T10:16:12;17.10;99.90
52643;DHT22;38531;53.296;6.614;2023-10-09T10:18:58;17.20;99.90
52643;DHT22;38531;53.296;6.614;2023-10-09T10:21:33;17.20;99.90
52643;DHT22;38531;53.296;6.614;2023-10-09T10:29:36;17.10;99.90
52643;DHT22;38531;53.296;6.614;2023-10-09T10:32:04;17.10;99.90
52643;DHT22;38531;53.296;6.614;2023-10-09T10:40:10;17.10;99.90
52643;DHT22;38531;53.296;6.614;2023-10-09T10:43:01;17.10;99.90
52643;DHT22;38531;53.296;6.614;2023-10-09T10:45:45;17.10;99.90
52643;DHT22;38531;53.296;6.614;2023-10-09T10:48:11;17.20;99.90
52643;DHT22;38531;53.296;6.614;2023-10-09T10:51:03;17.10;99.90
52643;DHT22;38531;53.296;6.614;2023-10-09T10:53:30;17.10;99.90
52643;DHT22;38531;53.296;6.614;2023-10-09T10:56:12;17.10;99.90
52643;DHT22;38531;53.296;6.614;2023-10-09T10:58:39;17.10;99.90
52643;DHT22;38531;53.296;6.614;2023-10-09T11:01:19;17.10;99.90
52643;DHT22;38531;53.296;6.614;2023-10-09T11:03:45;17.10;99.90
52643;DHT22;38531;53.296;6.614;2023-10-09T11:06:29;17.10;99.90
52643;DHT22;38531;53.296;6.614;2023-10-09T11:09:06;17.10;99.90
52643;DHT22;38531;53.296;6.614;2023-10-09T11:11:50;17.10;99.90
52643;DHT22;38531;53.296;6.614;2023-10-09T11:14:21;17.20;99.90
52643;DHT22;38531;53.296;6.614;2023-10-09T11:16:52;17.10;99.90
52643;DHT22;38531;53.296;6.614;2023-10-09T11:19:23;17.10;99.90
52643;DHT22;38531;53.296;6.614;2023-10-09T11:21:53;17.10;99.90
52643;DHT22;38531;53.296;6.614;2023-10-09T11:24:31;17.20;99.90
52643;DHT22;38531;53.296;6.614;2023-10-09T11:27:04;17.30;99.90
52643;DHT22;38531;53.296;6.614;2023-10-09T11:29:35;17.30;99.90
52643;DHT22;38531;53.296;6.614;2023-10-09T11:32:20;17.40;99.90
52643;DHT22;38531;53.296;6.614;2023-10-09T11:35:09;17.50;99.90
52643;DHT22;38531;53.296;6.614;2023-10-09T11:37:35;17.60;99.90
52643;DHT22;38531;53.296;6.614;2023-10-09T11:40:39;17.60;99.90
52643;DHT22;38531;53.296;6.614;2023-10-09T11:43:17;17.60;99.90
52643;DHT22;38531;53.296;6.614;2023-10-09T11:45:43;17.60;99.90
52643;DHT22;38531;53.296;6.614;2023-10-09T11:48:20;17.60;99.90
52643;DHT22;38531;53.296;6.614;2023-10-09T11:51:14;17.60;99.90
52643;DHT22;38531;53.296;6.614;2023-10-09T11:53:45;17.60;99.90
52643;DHT22;38531;53.296;6.614;2023-10-09T11:56:22;17.60;99.90
52643;DHT22;38531;53.296;6.614;2023-10-09T11:58:52;17.50;99.90
52643;DHT22;38531;53.296;6.614;2023-10-09T12:01:20;17.60;99.90
52643;DHT22;38531;53.296;6.614;2023-10-09T12:03:47;17.50;99.90
52643;DHT22;38531;53.296;6.614;2023-10-09T12:06:18;17.50;99.90
52643;DHT22;38531;53.296;6.614;2023-10-09T12:08:57;17.50;99.90
52643;DHT22;38531;53.296;6.614;2023-10-09T12:11:24;17.30;99.90
52643;DHT22;38531;53.296;6.614;2023-10-09T12:13:55;17.40;99.90
52643;DHT22;38531;53.296;6.614;2023-10-09T12:16:24;17.30;99.90
52643;DHT22;38531;53.296;6.614;2023-10-09T12:18:56;17.20;99.90
52643;DHT22;38531;53.296;6.614;2023-10-09T12:21:23;17.20;99.90
52643;DHT22;38531;53.296;6.614;2023-10-09T12:23:49;17.30;99.90
52643;DHT22;38531;53.296;6.614;2023-10-09T12:26:14;17.20;99.90
52643;DHT22;38531;53.296;6.614;2023-10-09T12:28:41;17.20;99.90
52643;DHT22;38531;53.296;6.614;2023-10-09T12:31:14;17.20;99.90
52643;DHT22;38531;53.296;6.614;2023-10-09T12:33:50;17.40;99.90
52643;DHT22;38531;53.296;6.614;2023-10-09T12:36:16;17.30;99.90
52643;DHT22;38531;53.296;6.614;2023-10-09T12:38:49;17.40;99.90
52643;DHT22;38531;53.296;6.614;2023-10-09T12:41:24;17.50;99.90
52643;DHT22;38531;53.296;6.614;2023-10-09T12:43:54;17.60;99.90
52643;DHT22;38531;53.296;6.614;2023-10-09T12:46:21;17.50;99.90
52643;DHT22;38531;53.296;6.614;2023-10-09T12:48:51;17.60;99.90
52643;DHT22;38531;53.296;6.614;2023-10-09T12:51:20;17.60;99.90
52643;DHT22;38531;53.296;6.614;2023-10-09T12:53:51;17.60;99.90
52643;DHT22;38531;53.296;6.614;2023-10-09T12:56:26;17.60;99.90
52643;DHT22;38531;53.296;6.614;2023-10-09T12:59:01;17.50;99.90
52643;DHT22;38531;53.296;6.614;2023-10-09T13:01:27;17.40;99.90
52643;DHT22;38531;53.296;6.614;2023-10-09T13:04:11;17.50;99.90
52643;DHT22;38531;53.296;6.614;2023-10-09T13:06:39;17.40;99.90
52643;DHT22;38531;53.296;6.614;2023-10-09T13:09:12;17.40;99.90
52643;DHT22;38531;53.296;6.614;2023-10-09T13:11:44;17.50;99.90
52643;DHT22;38531;53.296;6.614;2023-10-09T13:14:14;17.60;99.90
52643;DHT22;38531;53.296;6.614;2023-10-09T13:16:48;17.60;99.90
52643;DHT22;38531;53.296;6.614;2023-10-09T13:19:16;17.50;99.90
52643;DHT22;38531;53.296;6.614;2023-10-09T13:21:43;17.50;99.90
52643;DHT22;38531;53.296;6.614;2023-10-09T13:24:09;17.50;99.90
52643;DHT22;38531;53.296;6.614;2023-10-09T13:26:45;17.50;99.90
52643;DHT22;38531;53.296;6.614;2023-10-09T13:29:13;17.50;99.90
52643;DHT22;38531;53.296;6.614;2023-10-09T13:31:39;17.40;99.90
52643;DHT22;38531;53.296;6.614;2023-10-09T13:34:12;17.30;99.90
52643;DHT22;38531;53.296;6.614;2023-10-09T13:36:41;17.30;99.90
52643;DHT22;38531;53.296;6.614;2023-10-09T13:39:15;17.30;99.90
52643;DHT22;38531;53.296;6.614;2023-10-09T13:41:55;17.30;99.90
52643;DHT22;38531;53.296;6.614;2023-10-09T13:44:29;17.30;99.90
52643;DHT22;38531;53.296;6.614;2023-10-09T13:47:00;17.30;99.90
52643;DHT22;38531;53.296;6.614;2023-10-09T13:49:27;17.20;99.90
52643;DHT22;38531;53.296;6.614;2023-10-09T13:51:56;17.10;99.90
52643;DHT22;38531;53.296;6.614;2023-10-09T13:54:23;17.30;99.90
52643;DHT22;38531;53.296;6.614;2023-10-09T13:57:04;17.20;99.90
52643;DHT22;38531;53.296;6.614;2023-10-09T13:59:30;17.10;99.90
52643;DHT22;38531;53.296;6.614;2023-10-09T14:01:56;17.20;99.90
52643;DHT22;38531;53.296;6.614;2023-10-09T14:04:25;17.20;99.90
52643;DHT22;38531;53.296;6.614;2023-10-09T14:06:51;17.30;99.90
52643;DHT22;38531;53.296;6.614;2023-10-09T14:09:25;17.30;99.90
52643;DHT22;38531;53.296;6.614;2023-10-09T14:12:00;17.30;99.90
52643;DHT22;38531;53.296;6.614;2023-10-09T14:14:41;17.30;99.90
52643;DHT22;38531;53.296;6.614;2023-10-09T14:17:16;17.40;99.90
52643;DHT22;38531;53.296;6.614;2023-10-09T14:19:47;17.40;99.90
52643;DHT22;38531;53.296;6.614;2023-10-09T14:22:18;17.40;99.90
52643;DHT22;38531;53.296;6.614;2023-10-09T14:24:45;17.40;99.90
52643;DHT22;38531;53.296;6.614;2023-10-09T14:27:12;17.40;99.90
52643;DHT22;38531;53.296;6.614;2023-10-09T14:29:47;17.30;99.90
52643;DHT22;38531;53.296;6.614;2023-10-09T14:32:13;17.30;99.90
52643;DHT22;38531;53.296;6.614;2023-10-09T14:34:43;17.40;99.90
52643;DHT22;38531;53.296;6.614;2023-10-09T14:37:17;17.40;99.90
52643;DHT22;38531;53.296;6.614;2023-10-09T14:39:45;17.40;99.90
52643;DHT22;38531;53.296;6.614;2023-10-09T14:42:17;17.30;99.90
52643;DHT22;38531;53.296;6.614;2023-10-09T14:44:43;17.40;99.90
52643;DHT22;38531;53.296;6.614;2023-10-09T14:47:10;17.40;99.90
52643;DHT22;38531;53.296;6.614;2023-10-09T14:49:37;17.40;99.90
52643;DHT22;38531;53.296;6.614;2023-10-09T14:52:05;17.40;99.90
52643;DHT22;38531;53.296;6.614;2023-10-09T14:54:34;17.40;99.90
52643;DHT22;38531;53.296;6.614;2023-10-09T14:56:59;17.50;99.90
52643;DHT22;38531;53.296;6.614;2023-10-09T14:59:25;17.50;99.90
52643;DHT22;38531;53.296;6.614;2023-10-09T15:01:51;17.50;99.90
52643;DHT22;38531;53.296;6.614;2023-10-09T15:04:19;17.50;99.90
52643;DHT22;38531;53.296;6.614;2023-10-09T15:06:46;17.50;99.90
52643;DHT22;38531;53.296;6.614;2023-10-09T15:09:15;17.50;99.90
52643;DHT22;38531;53.296;6.614;2023-10-09T15:11:54;17.40;99.90
52643;DHT22;38531;53.296;6.614;2023-10-09T15:14:20;17.50;99.90
52643;DHT22;38531;53.296;6.614;2023-10-09T15:16:47;17.40;99.90
52643;DHT22;38531;53.296;6.614;2023-10-09T15:19:13;17.50;99.90
52643;DHT22;38531;53.296;6.614;2023-10-09T15:21:40;17.50;99.90
52643;DHT22;38531;53.296;6.614;2023-10-09T15:24:16;17.50;99.90
52643;DHT22;38531;53.296;6.614;2023-10-09T15:26:51;17.50;99.90
52643;DHT22;38531;53.296;6.614;2023-10-09T15:29:27;17.50;99.90
52643;DHT22;38531;53.296;6.614;2023-10-09T15:31:57;17.50;99.90
52643;DHT22;38531;53.296;6.614;2023-10-09T15:34:33;17.30;99.90
52643;DHT22;38531;53.296;6.614;2023-10-09T15:37:00;17.40;99.90
52643;DHT22;38531;53.296;6.614;2023-10-09T15:39:26;17.30;99.90
52643;DHT22;38531;53.296;6.614;2023-10-09T15:41:52;17.30;99.90
52643;DHT22;38531;53.296;6.614;2023-10-09T15:44:17;17.30;99.90
52643;DHT22;38531;53.296;6.614;2023-10-09T15:46:43;17.20;99.90
52643;DHT22;38531;53.296;6.614;2023-10-09T15:49:12;17.30;99.90
52643;DHT22;38531;53.296;6.614;2023-10-09T15:51:39;17.20;99.90
52643;DHT22;38531;53.296;6.614;2023-10-09T15:54:05;17.30;99.90
52643;DHT22;38531;53.296;6.614;2023-10-09T15:56:31;17.30;99.90
52643;DHT22;38531;53.296;6.614;2023-10-09T15:58:57;17.20;99.90
52643;DHT22;38531;53.296;6.614;2023-10-09T16:01:22;17.20;99.90
52643;DHT22;38531;53.296;6.614;2023-10-09T16:03:48;17.20;99.90
52643;DHT22;38531;53.296;6.614;2023-10-09T16:06:16;17.10;99.90
52643;DHT22;38531;53.296;6.614;2023-10-09T16:08:43;17.10;99.90
52643;DHT22;38531;53.296;6.614;2023-10-09T16:11:19;17.00;99.90
52643;DHT22;38531;53.296;6.614;2023-10-09T16:13:47;17.00;99.90
52643;DHT22;38531;53.296;6.614;2023-10-09T16:16:13;17.10;99.90
52643;DHT22;38531;53.296;6.614;2023-10-09T16:18:39;17.00;99.90
52643;DHT22;38531;53.296;6.614;2023-10-09T16:21:05;16.90;99.90
52643;DHT22;38531;53.296;6.614;2023-10-09T16:23:33;16.90;99.90
52643;DHT22;38531;53.296;6.614;2023-10-09T16:25:59;16.90;99.90
52643;DHT22;38531;53.296;6.614;2023-10-09T16:28:27;16.90;99.90
52643;DHT22;38531;53.296;6.614;2023-10-09T16:30:53;16.80;99.90
52643;DHT22;38531;53.296;6.614;2023-10-09T16:33:19;16.90;99.90